Terminal Aerodrome Forecast
Issued by NWS

Home | Current Version | Previous Version | Text Only | Print | Product List | Glossary On
Versions: 1 2 3 4 5 6 7 8 9 10 11 12 13 14 15 16 17 18
208
FTUS43 KPAH 042017 AAA
TAFCGI
TAF AMD
KCGI 042017Z 0420/0518 25007KT 5SM -RADZ BR OVC009
     FM042200 30007KT P6SM OVC012
     FM050100 36003KT P6SM FEW015 BKN250
     FM050600 VRB03KT 1/2SM FG VV005
     FM051500 07004KT 4SM BR BKN030=

USA.gov is the U.S. government's official web portal to all federal, state and local government web resources and services.